createdAt,value
2019-03-17T00:01:04.033Z,74.80
2019-03-17T00:03:33.515Z,74.58
2019-03-17T00:06:03.055Z,75.10
2019-03-17T00:08:32.513Z,75.39
2019-03-17T00:11:02.050Z,75.20
2019-03-17T00:13:31.571Z,74.54
2019-03-17T00:16:01.196Z,74.50
2019-03-17T00:18:30.780Z,75.03
2019-03-17T00:21:00.326Z,74.67
2019-03-17T00:23:29.798Z,74.91
2019-03-17T00:25:59.269Z,74.49
2019-03-17T00:28:28.860Z,74.07
2019-03-17T00:30:58.355Z,74.79
2019-03-17T00:33:27.780Z,74.55
2019-03-17T00:35:57.233Z,74.35
2019-03-17T00:38:26.698Z,74.32
2019-03-17T00:40:56.241Z,74.51
2019-03-17T00:43:25.743Z,73.77
2019-03-17T00:45:55.170Z,72.91
2019-03-17T00:48:25.675Z,73.33
2019-03-17T00:50:55.073Z,73.60
2019-03-17T00:53:24.615Z,73.01
2019-03-17T00:55:54.156Z,73.60
2019-03-17T00:58:23.683Z,73.14
2019-03-17T01:00:53.263Z,73.27
2019-03-17T01:03:23.127Z,72.93
2019-03-17T01:05:52.659Z,72.73
2019-03-17T01:08:22.320Z,72.93
2019-03-17T01:10:51.979Z,72.28
2019-03-17T01:13:23.829Z,72.25
2019-03-17T01:15:53.488Z,73.08
2019-03-17T01:18:22.939Z,73.09
2019-03-17T01:20:52.415Z,73.34
2019-03-17T01:23:22.060Z,73.81
2019-03-17T01:25:53.419Z,73.25
2019-03-17T01:28:22.851Z,73.71
2019-03-17T01:30:52.400Z,74.00
2019-03-17T01:33:24.234Z,73.72
2019-03-17T01:35:53.802Z,73.49
2019-03-17T01:38:23.380Z,73.62
2019-03-17T01:40:53.091Z,73.88
2019-03-17T01:43:22.703Z,73.82
2019-03-17T01:45:52.359Z,73.29
2019-03-17T01:48:21.927Z,72.93
2019-03-17T01:50:51.390Z,73.12
2019-03-17T01:53:21.088Z,72.75
2019-03-17T01:55:50.550Z,72.95
2019-03-17T01:58:20.009Z,72.61
2019-03-17T02:00:49.414Z,71.47
2019-03-17T02:03:18.909Z,71.44
2019-03-17T02:05:48.248Z,69.66
2019-03-17T02:08:17.779Z,70.06
2019-03-17T02:10:47.300Z,68.95
2019-03-17T02:13:16.729Z,69.44
2019-03-17T02:15:46.174Z,68.86
2019-03-17T02:18:15.798Z,68.54
2019-03-17T02:20:45.212Z,69.26
2019-03-17T02:23:14.742Z,69.49
2019-03-17T02:25:44.237Z,69.54
2019-03-17T02:28:13.823Z,70.05
2019-03-17T02:30:43.222Z,69.79
2019-03-17T02:33:12.779Z,70.17
2019-03-17T02:35:42.255Z,70.30
2019-03-17T02:38:11.736Z,70.86
2019-03-17T02:40:41.239Z,70.75
2019-03-17T02:43:10.685Z,71.03
2019-03-17T02:45:40.209Z,70.98
2019-03-17T02:48:09.624Z,71.43
2019-03-17T02:50:39.079Z,70.88
2019-03-17T02:53:08.679Z,70.72
2019-03-17T02:55:38.085Z,70.57
2019-03-17T02:58:07.519Z,70.51
2019-03-17T03:00:37.130Z,70.66
2019-03-17T03:03:06.971Z,70.30
2019-03-17T03:05:36.589Z,70.36
2019-03-17T03:08:06.097Z,69.75
2019-03-17T03:10:35.681Z,69.12
2019-03-17T03:13:05.205Z,69.82
2019-03-17T03:15:34.796Z,69.54
2019-03-17T03:18:04.286Z,69.21
2019-03-17T03:20:33.660Z,69.57
2019-03-17T03:23:03.151Z,69.87
2019-03-17T03:25:35.710Z,69.65
2019-03-17T03:28:05.221Z,69.40
2019-03-17T03:30:35.171Z,69.56
2019-03-17T03:33:04.566Z,69.16
2019-03-17T03:35:34.023Z,69.61
2019-03-17T03:38:03.430Z,70.17
2019-03-17T03:40:33.045Z,70.14
2019-03-17T03:43:02.541Z,70.58
2019-03-17T03:45:32.109Z,70.48
2019-03-17T03:48:01.611Z,70.92
2019-03-17T03:50:31.172Z,71.11
2019-03-17T03:53:00.712Z,71.01
2019-03-17T03:55:30.112Z,71.37
2019-03-17T03:57:59.580Z,72.01
2019-03-17T04:00:29.053Z,72.87
2019-03-17T04:02:58.440Z,72.76
2019-03-17T04:05:27.960Z,73.43
2019-03-17T04:07:57.405Z,73.10
2019-03-17T04:10:26.898Z,73.19
2019-03-17T04:12:56.295Z,73.63
2019-03-17T04:15:26.180Z,73.76
2019-03-17T04:17:55.691Z,73.85
2019-03-17T04:20:25.078Z,74.01
2019-03-17T04:22:54.492Z,75.16
2019-03-17T04:25:23.903Z,75.04
2019-03-17T04:27:53.343Z,75.16
2019-03-17T04:30:23.349Z,76.25
2019-03-17T04:32:52.887Z,76.96
2019-03-17T04:35:22.352Z,76.75
2019-03-17T04:37:51.823Z,77.11
2019-03-17T04:40:21.292Z,77.26
2019-03-17T04:42:50.808Z,78.76
2019-03-17T04:45:20.314Z,79.68
2019-03-17T04:47:49.714Z,80.17
2019-03-17T04:50:19.174Z,81.09
2019-03-17T04:52:48.671Z,82.07
2019-03-17T04:55:18.099Z,82.66
2019-03-17T04:57:47.498Z,82.62
2019-03-17T05:00:16.893Z,83.81
2019-03-17T05:02:46.322Z,85.30
2019-03-17T05:05:16.791Z,86.64
2019-03-17T05:07:46.277Z,87.24
2019-03-17T05:10:15.793Z,87.17
2019-03-17T05:12:45.209Z,88.07
2019-03-17T05:15:14.736Z,87.54
2019-03-17T05:17:44.319Z,88.30
2019-03-17T05:20:13.879Z,88.42
2019-03-17T05:22:43.311Z,89.46
2019-03-17T05:25:12.829Z,90.51
2019-03-17T05:27:42.273Z,91.00
2019-03-17T05:30:11.896Z,92.03
2019-03-17T05:32:41.355Z,92.73
2019-03-17T05:35:11.112Z,93.46
2019-03-17T05:37:40.674Z,93.23
2019-03-17T05:40:11.892Z,94.12
2019-03-17T05:42:41.382Z,94.52
2019-03-17T05:45:10.987Z,94.85
2019-03-17T05:47:40.515Z,95.67
2019-03-17T05:50:10.093Z,95.61
2019-03-17T05:52:39.582Z,96.01
2019-03-17T05:55:09.202Z,96.48
2019-03-17T05:57:38.748Z,96.52
2019-03-17T06:00:10.017Z,96.78
2019-03-17T06:02:39.534Z,97.10
2019-03-17T06:05:09.848Z,97.06
2019-03-17T06:07:39.461Z,97.69
2019-03-17T06:10:09.004Z,97.38
2019-03-17T06:12:38.422Z,97.60
2019-03-17T06:15:09.052Z,97.49
2019-03-17T06:17:38.686Z,97.23
2019-03-17T06:20:09.468Z,97.71
2019-03-17T06:22:38.992Z,97.31
2019-03-17T06:25:08.635Z,96.93
2019-03-17T06:27:38.007Z,97.16
2019-03-17T06:30:07.882Z,97.71
2019-03-17T06:32:37.492Z,97.80
2019-03-17T06:35:07.167Z,96.39
2019-03-17T06:37:36.609Z,97.06
2019-03-17T06:40:06.499Z,97.17
2019-03-17T06:42:35.928Z,97.40
2019-03-17T06:45:06.426Z,97.30
2019-03-17T06:47:35.972Z,96.60
2019-03-17T06:50:06.411Z,97.74
2019-03-17T06:52:35.891Z,96.74
2019-03-17T06:55:06.132Z,97.02
2019-03-17T06:57:35.713Z,97.67
2019-03-17T07:00:05.662Z,97.99
2019-03-17T07:02:35.194Z,97.40
2019-03-17T07:05:04.964Z,98.25
2019-03-17T07:07:44.014Z,98.59
2019-03-17T07:10:05.749Z,98.25
2019-03-17T07:12:35.211Z,97.92
2019-03-17T07:15:04.898Z,98.69
2019-03-17T07:17:34.429Z,98.24
2019-03-17T07:20:04.032Z,98.00
2019-03-17T07:22:33.382Z,97.62
2019-03-17T07:25:02.850Z,97.12
2019-03-17T07:27:32.397Z,95.79
2019-03-17T07:30:02.397Z,96.43
2019-03-17T07:32:31.829Z,96.94
2019-03-17T07:35:01.353Z,97.43
2019-03-17T07:37:30.860Z,97.18
2019-03-17T07:40:00.480Z,97.03
2019-03-17T07:42:32.453Z,97.21
2019-03-17T07:45:01.219Z,96.01
2019-03-17T07:47:30.768Z,96.21
2019-03-17T07:50:00.362Z,96.36
2019-03-17T07:52:29.755Z,96.52
2019-03-17T07:54:59.721Z,97.43
2019-03-17T07:57:29.272Z,97.63
2019-03-17T07:59:58.747Z,96.80
2019-03-17T08:02:28.222Z,96.64
2019-03-17T08:04:57.736Z,96.13
2019-03-17T08:07:27.361Z,96.68
2019-03-17T08:09:56.752Z,96.88
2019-03-17T08:12:26.204Z,96.78
2019-03-17T08:14:57.805Z,96.42
2019-03-17T08:17:26.818Z,92.45
2019-03-17T08:19:56.367Z,91.53
2019-03-17T08:22:25.998Z,90.66
2019-03-17T08:24:58.577Z,90.44
2019-03-17T08:27:28.075Z,89.07
2019-03-17T08:29:57.500Z,89.40
2019-03-17T08:32:26.918Z,87.75
2019-03-17T08:34:56.416Z,86.99
2019-03-17T08:37:25.912Z,84.97
2019-03-17T08:39:55.458Z,84.81
2019-03-17T08:42:25.062Z,84.46
2019-03-17T08:44:54.559Z,83.43
2019-03-17T08:47:24.097Z,81.70
2019-03-17T08:49:53.564Z,82.03
2019-03-17T08:52:23.030Z,81.66
2019-03-17T08:54:52.473Z,81.87
2019-03-17T08:57:22.342Z,80.47
2019-03-17T08:59:51.885Z,80.83
2019-03-17T09:02:21.304Z,81.15
2019-03-17T09:04:50.735Z,80.97
2019-03-17T09:07:20.314Z,80.09
2019-03-17T09:09:49.783Z,80.28
2019-03-17T09:12:19.359Z,82.08
2019-03-17T09:14:48.849Z,80.76
2019-03-17T09:17:18.416Z,81.20
2019-03-17T09:19:47.955Z,81.65
2019-03-17T09:22:17.564Z,80.12
2019-03-17T09:24:47.145Z,81.00
2019-03-17T09:27:16.604Z,81.42
2019-03-17T09:29:46.036Z,80.36
2019-03-17T09:32:15.549Z,81.22
2019-03-17T09:34:45.143Z,81.14
2019-03-17T09:37:14.643Z,79.69
2019-03-17T09:39:44.138Z,80.46
2019-03-17T09:42:13.625Z,79.03
2019-03-17T09:44:43.287Z,78.73
2019-03-17T09:47:12.701Z,77.92
2019-03-17T09:49:42.244Z,79.23
2019-03-17T09:52:11.743Z,78.61
2019-03-17T09:54:41.216Z,79.07
2019-03-17T09:57:10.630Z,78.49
2019-03-17T09:59:40.147Z,78.33
2019-03-17T10:02:09.730Z,77.04
2019-03-17T10:04:39.334Z,77.90
2019-03-17T10:07:08.877Z,78.09
2019-03-17T10:09:38.430Z,78.81
2019-03-17T10:12:07.962Z,77.94
2019-03-17T10:14:37.451Z,78.07
2019-03-17T10:17:07.013Z,78.09
2019-03-17T10:19:37.037Z,78.02
2019-03-17T10:22:06.866Z,77.15
2019-03-17T10:24:36.402Z,77.35
2019-03-17T10:27:06.089Z,77.36
2019-03-17T10:29:35.645Z,77.60
2019-03-17T10:32:05.191Z,77.15
2019-03-17T10:34:34.736Z,76.27
2019-03-17T10:37:04.124Z,77.14
2019-03-17T10:39:33.670Z,74.57
2019-03-17T10:42:03.196Z,74.10
2019-03-17T10:44:32.821Z,74.48
2019-03-17T10:47:02.383Z,72.78
2019-03-17T10:49:31.829Z,73.82
2019-03-17T10:52:01.476Z,74.17
2019-03-17T10:54:31.005Z,76.36
2019-03-17T10:57:00.664Z,76.70
2019-03-17T10:59:30.244Z,76.91
2019-03-17T11:01:59.869Z,75.71
2019-03-17T11:04:29.492Z,77.01
2019-03-17T11:06:58.928Z,77.05
2019-03-17T11:09:28.477Z,76.10
2019-03-17T11:11:58.069Z,76.83
2019-03-17T11:14:27.574Z,74.88
2019-03-17T11:16:57.282Z,74.16
2019-03-17T11:19:26.785Z,72.46
2019-03-17T11:21:56.519Z,72.47
2019-03-17T11:24:26.198Z,74.35
2019-03-17T11:26:55.958Z,69.66
2019-03-17T11:29:25.572Z,67.23
2019-03-17T11:31:55.211Z,66.12
2019-03-17T11:34:24.930Z,65.48
2019-03-17T11:36:54.486Z,67.17
2019-03-17T11:39:24.235Z,67.21
2019-03-17T11:41:53.686Z,65.12
2019-03-17T11:44:23.249Z,63.22
2019-03-17T11:46:52.991Z,65.53
2019-03-17T11:49:22.578Z,68.48
2019-03-17T11:51:52.309Z,67.66
2019-03-17T11:54:21.908Z,68.51
2019-03-17T11:56:51.518Z,67.34
2019-03-17T11:59:21.294Z,66.87
2019-03-17T12:01:51.147Z,68.15
2019-03-17T12:04:20.912Z,69.11
2019-03-17T12:06:50.848Z,68.12
2019-03-17T12:09:29.014Z,66.22
2019-03-17T12:11:52.071Z,66.65
2019-03-17T12:14:21.778Z,67.14
2019-03-17T12:16:51.707Z,67.10
2019-03-17T12:19:21.582Z,69.05
2019-03-17T12:21:51.328Z,70.44
2019-03-17T12:24:21.063Z,69.49
2019-03-17T12:26:50.826Z,69.05
2019-03-17T12:29:20.488Z,68.24
2019-03-17T12:31:50.210Z,68.04
2019-03-17T12:34:28.010Z,67.66
2019-03-17T12:36:52.449Z,68.36
2019-03-17T12:39:22.301Z,68.35
2019-03-17T12:41:52.097Z,67.67
2019-03-17T12:44:22.027Z,67.89
2019-03-17T12:46:51.726Z,65.77
2019-03-17T12:49:21.548Z,65.09
2019-03-17T12:51:51.505Z,65.06
2019-03-17T12:54:21.425Z,63.84
2019-03-17T12:56:51.365Z,63.27
2019-03-17T12:59:21.307Z,63.43
2019-03-17T13:01:51.044Z,59.94
2019-03-17T13:04:20.936Z,59.60
2019-03-17T13:06:50.819Z,58.66
2019-03-17T13:09:20.754Z,59.06
2019-03-17T13:11:50.608Z,59.74
2019-03-17T13:14:20.410Z,60.63
2019-03-17T13:16:50.216Z,62.79
2019-03-17T13:19:20.014Z,64.07
2019-03-17T13:21:49.838Z,64.95
2019-03-17T13:24:19.628Z,70.53
2019-03-17T13:26:49.546Z,77.01
2019-03-17T13:29:19.356Z,79.63
2019-03-17T13:31:49.290Z,79.88
2019-03-17T13:34:19.187Z,79.17
2019-03-17T13:36:49.186Z,78.05
2019-03-17T13:39:19.460Z,77.17
2019-03-17T13:41:49.457Z,77.02
2019-03-17T13:44:20.505Z,74.37
2019-03-17T13:46:50.375Z,74.09
2019-03-17T13:49:20.411Z,73.22
2019-03-17T13:51:50.344Z,70.53
2019-03-17T13:54:20.275Z,70.00
2019-03-17T13:56:50.090Z,57.10
2019-03-17T13:59:19.895Z,57.11
2019-03-17T14:01:49.787Z,57.85
2019-03-17T14:04:20.163Z,56.57
2019-03-17T14:06:50.031Z,54.63
2019-03-17T14:09:19.832Z,56.97
2019-03-17T14:11:49.922Z,56.61
2019-03-17T14:14:19.776Z,54.19
2019-03-17T14:16:49.834Z,50.19
2019-03-17T14:19:20.190Z,49.78
2019-03-17T14:21:50.219Z,50.58
2019-03-17T14:24:20.179Z,45.86
2019-03-17T14:26:50.079Z,48.87
2019-03-17T14:29:20.042Z,54.02
2019-03-17T14:31:49.862Z,57.17
2019-03-17T14:34:19.768Z,58.06
2019-03-17T14:36:49.753Z,60.12
2019-03-17T14:39:19.655Z,62.04
2019-03-17T14:41:49.388Z,61.09
2019-03-17T14:44:19.036Z,55.18
2019-03-17T14:46:48.922Z,49.33
2019-03-17T14:49:18.964Z,47.26
2019-03-17T14:51:48.903Z,47.21
2019-03-17T14:54:19.121Z,45.90
2019-03-17T14:56:49.054Z,44.48
2019-03-17T14:59:18.956Z,46.47
2019-03-17T15:01:48.878Z,50.86
2019-03-17T15:04:18.793Z,52.54
2019-03-17T15:06:48.997Z,54.25
2019-03-17T15:09:18.914Z,53.87
2019-03-17T15:11:48.966Z,56.31
2019-03-17T15:14:18.874Z,58.69
2019-03-17T15:16:49.273Z,61.03
2019-03-17T15:19:19.543Z,62.68
2019-03-17T15:21:49.592Z,63.83
2019-03-17T15:24:19.601Z,64.05
2019-03-17T15:26:49.470Z,59.03
2019-03-17T15:29:19.632Z,51.93
2019-03-17T15:31:50.607Z,48.76
2019-03-17T15:34:20.621Z,46.20
2019-03-17T15:36:50.580Z,44.23
2019-03-17T15:39:21.024Z,42.59
2019-03-17T15:41:50.987Z,49.27
2019-03-17T15:44:21.040Z,55.08
2019-03-17T15:46:50.905Z,59.11
2019-03-17T15:49:21.048Z,58.39
2019-03-17T15:51:52.171Z,61.43
2019-03-17T15:54:22.475Z,63.50
2019-03-17T15:56:52.548Z,68.08
2019-03-17T15:59:22.474Z,71.13
2019-03-17T16:01:52.386Z,71.02
2019-03-17T16:04:22.229Z,72.41
2019-03-17T16:06:53.158Z,73.15
2019-03-17T16:09:23.070Z,72.33
2019-03-17T16:11:53.042Z,70.83
2019-03-17T16:14:22.906Z,71.70
2019-03-17T16:16:52.932Z,67.89
2019-03-17T16:19:23.013Z,66.53
2019-03-17T16:21:53.012Z,66.30
2019-03-17T16:24:22.840Z,65.41
2019-03-17T16:26:52.686Z,65.53
2019-03-17T16:29:22.652Z,63.90
2019-03-17T16:31:52.468Z,63.79
2019-03-17T16:34:23.641Z,62.07
2019-03-17T16:36:53.739Z,61.53
2019-03-17T16:39:23.587Z,60.63
2019-03-17T16:41:53.396Z,60.09
2019-03-17T16:44:23.189Z,60.96
2019-03-17T16:46:54.408Z,59.32
2019-03-17T16:49:25.049Z,60.30
2019-03-17T16:51:54.902Z,59.56
2019-03-17T16:54:24.719Z,60.66
2019-03-17T16:56:54.542Z,59.46
2019-03-17T16:59:24.548Z,58.27
2019-03-17T17:01:54.608Z,57.33
2019-03-17T17:04:24.439Z,58.26
2019-03-17T17:06:54.874Z,58.93
2019-03-17T17:09:24.860Z,59.26
2019-03-17T17:11:57.476Z,59.90
2019-03-17T17:14:27.267Z,60.53
2019-03-17T17:16:57.173Z,60.94
2019-03-17T17:19:27.333Z,61.51
2019-03-17T17:21:58.725Z,62.45
2019-03-17T17:24:28.910Z,63.08
2019-03-17T17:26:58.740Z,64.12
2019-03-17T17:29:30.176Z,64.76
2019-03-17T17:32:00.440Z,64.68
2019-03-17T17:34:30.555Z,65.71
2019-03-17T17:37:00.505Z,65.52
2019-03-17T17:39:30.455Z,66.63
2019-03-17T17:42:08.903Z,66.69
2019-03-17T17:44:32.215Z,67.21
2019-03-17T17:47:02.164Z,67.60
2019-03-17T17:49:32.196Z,67.88
2019-03-17T17:52:03.627Z,67.40
2019-03-17T17:54:33.895Z,67.58
2019-03-17T17:57:03.846Z,67.77
2019-03-17T17:59:33.689Z,67.75
2019-03-17T18:02:04.104Z,68.16
2019-03-17T18:04:34.086Z,67.68
2019-03-17T18:07:04.278Z,66.86
2019-03-17T18:09:34.235Z,67.59
2019-03-17T18:12:04.238Z,67.98
2019-03-17T18:14:34.278Z,68.14
2019-03-17T18:17:04.166Z,67.54
2019-03-17T18:19:34.315Z,67.69
2019-03-17T18:22:04.353Z,68.40
2019-03-17T18:24:34.458Z,68.25
2019-03-17T18:27:04.350Z,68.40
2019-03-17T18:29:34.229Z,68.19
2019-03-17T18:32:04.226Z,68.20
2019-03-17T18:34:35.852Z,68.50
2019-03-17T18:37:05.885Z,69.11
2019-03-17T18:39:37.112Z,69.74
2019-03-17T18:42:07.093Z,69.77
2019-03-17T18:44:37.007Z,70.13
2019-03-17T18:47:06.896Z,70.34
2019-03-17T18:49:38.986Z,71.57
2019-03-17T18:52:08.979Z,71.87
2019-03-17T18:54:38.939Z,72.45
2019-03-17T18:57:09.217Z,72.00
2019-03-17T18:59:39.154Z,70.88
2019-03-17T19:02:08.952Z,70.02
2019-03-17T19:04:38.850Z,69.56
2019-03-17T19:07:08.687Z,69.86
2019-03-17T19:09:40.368Z,69.37
2019-03-17T19:12:10.329Z,70.07
2019-03-17T19:14:40.366Z,70.07
2019-03-17T19:17:10.324Z,70.54
2019-03-17T19:19:41.820Z,70.71
2019-03-17T19:22:11.777Z,70.98
2019-03-17T19:24:41.735Z,71.08
2019-03-17T19:27:11.569Z,71.28
2019-03-17T19:29:41.981Z,70.85
2019-03-17T19:32:12.440Z,71.85
2019-03-17T19:34:42.496Z,71.79
2019-03-17T19:37:12.538Z,72.31
2019-03-17T19:39:42.493Z,72.70
2019-03-17T19:42:12.600Z,73.87
2019-03-17T19:44:42.713Z,74.25
2019-03-17T19:47:14.862Z,74.47
2019-03-17T19:49:44.884Z,75.36
2019-03-17T19:52:14.865Z,74.43
2019-03-17T19:54:44.857Z,75.19
2019-03-17T19:57:14.765Z,75.82
2019-03-17T19:59:44.695Z,76.18
2019-03-17T20:02:14.538Z,76.25
2019-03-17T20:04:44.486Z,77.02
2019-03-17T20:07:14.270Z,77.08
2019-03-17T20:09:44.200Z,78.26
2019-03-17T20:12:15.068Z,78.66
2019-03-17T20:14:45.642Z,78.34
2019-03-17T20:17:15.671Z,77.85
2019-03-17T20:19:45.549Z,77.96
2019-03-17T20:22:15.388Z,77.85
2019-03-17T20:24:45.586Z,78.55
2019-03-17T20:27:18.465Z,78.38
2019-03-17T20:29:48.235Z,78.46
2019-03-17T20:32:18.032Z,78.16
2019-03-17T20:34:50.062Z,78.40
2019-03-17T20:37:20.004Z,78.86
2019-03-17T20:39:49.968Z,78.74
2019-03-17T20:42:19.796Z,79.12
2019-03-17T20:44:49.658Z,79.21
2019-03-17T20:47:19.748Z,79.81
2019-03-17T20:49:49.687Z,79.70
2019-03-17T20:52:19.689Z,80.07
2019-03-17T20:54:49.662Z,80.09
2019-03-17T20:57:19.648Z,80.76
2019-03-17T20:59:49.565Z,80.86
2019-03-17T21:02:19.571Z,80.99
2019-03-17T21:04:49.353Z,81.43
2019-03-17T21:07:19.161Z,81.81
2019-03-17T21:09:49.021Z,82.12
2019-03-17T21:12:18.856Z,82.68
2019-03-17T21:14:49.029Z,83.09
2019-03-17T21:17:18.856Z,83.12
2019-03-17T21:19:48.843Z,83.28
2019-03-17T21:22:18.783Z,83.56
2019-03-17T21:24:48.582Z,83.76
2019-03-17T21:27:18.496Z,84.19
2019-03-17T21:29:48.256Z,84.84
2019-03-17T21:32:18.296Z,83.95
2019-03-17T21:34:48.280Z,83.71
2019-03-17T21:37:18.275Z,84.19
2019-03-17T21:39:49.710Z,83.85
2019-03-17T21:42:19.562Z,85.18
2019-03-17T21:44:49.468Z,85.10
2019-03-17T21:47:19.402Z,85.44
2019-03-17T21:49:49.205Z,85.71
2019-03-17T21:52:18.926Z,85.61
2019-03-17T21:54:48.684Z,85.59
2019-03-17T21:57:18.485Z,86.15
2019-03-17T21:59:48.153Z,85.64
2019-03-17T22:02:18.020Z,85.59
2019-03-17T22:04:47.598Z,85.84
2019-03-17T22:07:17.377Z,85.93
2019-03-17T22:09:46.818Z,86.44
2019-03-17T22:12:16.415Z,86.81
2019-03-17T22:14:45.913Z,86.74
2019-03-17T22:17:15.499Z,86.65
2019-03-17T22:19:45.003Z,86.49
2019-03-17T22:22:14.524Z,86.79
2019-03-17T22:24:44.049Z,86.86
2019-03-17T22:27:13.547Z,86.94
2019-03-17T22:29:43.126Z,87.39
2019-03-17T22:32:12.611Z,87.62
2019-03-17T22:34:42.133Z,88.18
2019-03-17T22:37:11.598Z,88.43
2019-03-17T22:39:41.074Z,88.59
2019-03-17T22:42:10.592Z,89.01
2019-03-17T22:44:40.189Z,88.63
2019-03-17T22:47:09.659Z,88.59
2019-03-17T22:49:39.103Z,88.78
2019-03-17T22:52:08.592Z,88.70
2019-03-17T22:54:38.178Z,88.98
2019-03-17T22:57:08.757Z,89.05
2019-03-17T22:59:38.184Z,89.48
2019-03-17T23:02:07.699Z,89.39
2019-03-17T23:04:37.191Z,89.30
2019-03-17T23:07:06.611Z,89.29
2019-03-17T23:09:36.132Z,89.21
2019-03-17T23:12:05.598Z,89.10
2019-03-17T23:14:36.988Z,89.38
2019-03-17T23:17:06.405Z,89.09
2019-03-17T23:19:36.028Z,90.15
2019-03-17T23:22:05.522Z,90.11
2019-03-17T23:24:35.054Z,89.86
2019-03-17T23:27:04.487Z,89.85
2019-03-17T23:29:33.889Z,89.77
2019-03-17T23:32:03.412Z,89.79
2019-03-17T23:34:33.003Z,89.65
2019-03-17T23:37:02.523Z,89.55
2019-03-17T23:39:32.023Z,89.41
2019-03-17T23:42:01.423Z,89.39
2019-03-17T23:44:31.193Z,89.62
2019-03-17T23:47:00.738Z,89.57
2019-03-17T23:49:30.249Z,89.62
2019-03-17T23:51:59.780Z,90.05
2019-03-17T23:54:29.269Z,90.03
2019-03-17T23:56:58.793Z,90.20
2019-03-17T23:59:28.221Z,89.74
